createdAt,value
2017-11-17T00:00:01.498Z,109.03
2017-11-17T00:02:39.194Z,92.03
2017-11-17T00:05:16.595Z,94.28
2017-11-17T00:07:50.792Z,96.30
2017-11-17T00:10:29.980Z,87.68
2017-11-17T00:13:08.741Z,115.20
2017-11-17T00:15:48.215Z,113.12
2017-11-17T00:18:26.908Z,104.93
2017-11-17T00:21:01.904Z,105.35
2017-11-17T00:23:39.156Z,101.78
2017-11-17T00:26:19.575Z,113.25
2017-11-17T00:28:58.003Z,129.35
2017-11-17T00:31:37.971Z,124.18
2017-11-17T00:34:19.470Z,123.97
2017-11-17T00:36:57.444Z,127.68
2017-11-17T00:39:38.729Z,114.47
2017-11-17T00:42:18.146Z,129.30
2017-11-17T00:44:58.010Z,120.03
2017-11-17T00:47:35.544Z,121.95
2017-11-17T00:50:13.965Z,127.22
2017-11-17T00:52:53.332Z,106.22
2017-11-17T00:55:27.871Z,109.65
2017-11-17T00:58:02.429Z,100.50
2017-11-17T01:00:36.053Z,104.10
2017-11-17T01:03:15.452Z,97.97
2017-11-17T01:05:58.896Z,101.50
2017-11-17T01:08:37.487Z,95.05
2017-11-17T01:11:15.102Z,94.13
2017-11-17T01:13:53.073Z,103.38
2017-11-17T01:16:34.342Z,104.50
2017-11-17T01:19:12.134Z,87.78
2017-11-17T01:21:55.243Z,94.05
2017-11-17T01:24:36.235Z,93.47
2017-11-17T01:27:15.159Z,84.62
2017-11-17T01:29:55.464Z,76.45
2017-11-17T01:32:34.763Z,80.03
2017-11-17T01:35:15.204Z,91.00
2017-11-17T01:37:57.583Z,65.60
2017-11-17T01:40:36.981Z,68.57
2017-11-17T01:43:16.282Z,64.70
2017-11-17T01:45:56.924Z,63.60
2017-11-17T01:48:35.670Z,51.97
2017-11-17T01:51:16.070Z,51.45
2017-11-17T01:53:54.907Z,57.22
2017-11-17T01:56:32.998Z,54.03
2017-11-17T01:59:11.996Z,50.88
2017-11-17T02:01:52.969Z,57.05
2017-11-17T02:04:33.499Z,52.72
2017-11-17T02:07:06.838Z,56.90
2017-11-17T02:09:43.186Z,47.53
2017-11-17T02:12:18.408Z,49.20
2017-11-17T02:14:57.697Z,47.30
2017-11-17T02:17:32.554Z,45.15
2017-11-17T02:20:12.956Z,45.05
2017-11-17T02:22:55.428Z,41.97
2017-11-17T02:25:34.850Z,46.40
2017-11-17T02:28:15.656Z,52.60
2017-11-17T02:30:56.781Z,47.72
2017-11-17T02:33:34.097Z,51.60
2017-11-17T02:36:14.673Z,39.45
2017-11-17T02:38:53.953Z,37.95
2017-11-17T02:41:35.336Z,34.83
2017-11-17T02:44:16.932Z,39.10
2017-11-17T02:46:53.620Z,45.65
2017-11-17T02:49:32.195Z,39.20
2017-11-17T02:52:12.271Z,33.92
2017-11-17T02:54:46.059Z,33.17
2017-11-17T02:57:25.248Z,37.30
2017-11-17T03:00:06.610Z,33.50
2017-11-17T03:02:44.450Z,27.40
2017-11-17T03:05:23.925Z,33.10
2017-11-17T03:08:05.498Z,29.92
2017-11-17T03:10:45.814Z,25.42
2017-11-17T03:13:23.714Z,35.63
2017-11-17T03:16:05.661Z,25.70
2017-11-17T03:18:41.077Z,36.97
2017-11-17T03:21:23.174Z,27.75
2017-11-17T03:24:03.430Z,37.45
2017-11-17T03:26:39.929Z,47.80
2017-11-17T03:29:20.674Z,28.65
2017-11-17T03:32:00.836Z,28.92
2017-11-17T03:34:41.110Z,23.38
2017-11-17T03:37:20.769Z,28.83
2017-11-17T03:39:59.259Z,25.77
2017-11-17T03:42:39.098Z,26.70
2017-11-17T03:45:18.069Z,24.08
2017-11-17T03:47:58.057Z,28.67
2017-11-17T03:50:35.038Z,28.75
2017-11-17T03:53:08.059Z,31.08
2017-11-17T03:55:44.943Z,27.85
2017-11-17T03:58:24.450Z,23.50
2017-11-17T04:01:03.503Z,26.08
2017-11-17T04:03:41.907Z,27.95
2017-11-17T04:06:22.382Z,22.73
2017-11-17T04:09:00.311Z,32.80
2017-11-17T04:11:40.019Z,24.77
2017-11-17T04:14:19.891Z,21.80
2017-11-17T04:17:02.918Z,21.83
2017-11-17T04:19:37.982Z,23.77
2017-11-17T04:22:17.537Z,30.50
2017-11-17T04:24:56.668Z,22.73
2017-11-17T04:27:35.050Z,21.77
2017-11-17T04:30:15.682Z,22.40
2017-11-17T04:32:54.345Z,28.50
2017-11-17T04:35:34.131Z,15.50
2017-11-17T04:38:14.778Z,19.92
2017-11-17T04:40:50.660Z,18.42
2017-11-17T04:43:30.583Z,17.60
2017-11-17T04:46:11.507Z,27.00
2017-11-17T04:48:50.567Z,29.83
2017-11-17T04:51:30.962Z,25.58
2017-11-17T04:54:09.636Z,25.95
2017-11-17T04:56:50.301Z,26.60
2017-11-17T04:59:29.903Z,23.77
2017-11-17T05:02:09.041Z,27.42
2017-11-17T05:04:48.473Z,18.12
2017-11-17T05:07:27.147Z,14.77
2017-11-17T05:10:05.924Z,16.17
2017-11-17T05:12:44.508Z,21.67
2017-11-17T05:15:23.775Z,38.70
2017-11-17T05:18:03.093Z,18.67
2017-11-17T05:20:45.297Z,27.00
2017-11-17T05:23:21.237Z,24.67
2017-11-17T05:26:00.485Z,51.63
2017-11-17T05:28:40.149Z,19.25
2017-11-17T05:31:19.488Z,25.90
2017-11-17T05:34:00.772Z,19.40
2017-11-17T05:36:35.649Z,15.50
2017-11-17T05:39:11.734Z,28.83
2017-11-17T05:41:46.631Z,21.05
2017-11-17T05:44:25.291Z,19.00
2017-11-17T05:47:04.748Z,20.35
2017-11-17T05:49:40.502Z,17.77
2017-11-17T05:52:19.191Z,21.10
2017-11-17T05:54:57.280Z,14.77
2017-11-17T05:57:37.912Z,13.50
2017-11-17T06:00:20.664Z,23.55
2017-11-17T06:02:59.956Z,26.00
2017-11-17T06:05:33.787Z,21.35
2017-11-17T06:08:07.593Z,28.73
2017-11-17T06:10:43.099Z,23.67
2017-11-17T06:13:22.202Z,21.02
2017-11-17T06:16:01.996Z,29.40
2017-11-17T06:18:42.018Z,23.45
2017-11-17T06:21:22.665Z,21.90
2017-11-17T06:24:00.205Z,27.98
2017-11-17T06:26:33.793Z,33.25
2017-11-17T06:29:14.967Z,16.95
2017-11-17T06:31:54.967Z,31.50
2017-11-17T06:34:33.653Z,23.40
2017-11-17T06:37:16.828Z,23.10
2017-11-17T06:39:56.649Z,22.52
2017-11-17T06:42:40.041Z,20.00
2017-11-17T06:45:22.383Z,19.02
2017-11-17T06:48:01.333Z,32.70
2017-11-17T06:50:39.439Z,20.45
2017-11-17T06:53:14.080Z,26.33
2017-11-17T06:55:54.975Z,20.40
2017-11-17T06:58:29.972Z,26.67
2017-11-17T07:01:09.807Z,26.90
2017-11-17T07:03:44.479Z,20.98
2017-11-17T07:06:24.102Z,24.55
2017-11-17T07:09:05.297Z,24.87
2017-11-17T07:11:44.885Z,17.58
2017-11-17T07:14:23.160Z,22.08
2017-11-17T07:17:00.721Z,22.92
2017-11-17T07:19:34.920Z,21.52
2017-11-17T07:22:20.543Z,14.07
2017-11-17T07:24:59.536Z,20.37
2017-11-17T07:27:33.080Z,30.85
2017-11-17T07:30:10.900Z,25.52
2017-11-17T07:32:50.977Z,24.75
2017-11-17T07:35:31.095Z,30.70
2017-11-17T07:38:08.569Z,36.05
2017-11-17T07:40:44.920Z,14.35
2017-11-17T07:43:23.687Z,20.40
2017-11-17T07:46:03.572Z,19.67
2017-11-17T07:48:42.367Z,23.40
2017-11-17T07:51:21.191Z,17.67
2017-11-17T07:54:00.342Z,24.02
2017-11-17T07:56:44.190Z,20.33
2017-11-17T07:59:24.057Z,19.30
2017-11-17T08:02:03.057Z,24.85
2017-11-17T08:04:43.230Z,20.73
2017-11-17T08:07:22.121Z,23.87
2017-11-17T08:09:59.489Z,19.15
2017-11-17T08:12:39.881Z,30.85
2017-11-17T08:15:20.434Z,24.30
2017-11-17T08:18:07.522Z,19.80
2017-11-17T08:20:46.512Z,21.80
2017-11-17T08:23:27.460Z,24.70
2017-11-17T08:26:06.947Z,21.37
2017-11-17T08:28:45.408Z,17.17
2017-11-17T08:31:24.867Z,17.70
2017-11-17T08:34:04.548Z,31.70
2017-11-17T08:36:46.530Z,36.60
2017-11-17T08:39:20.979Z,14.55
2017-11-17T08:41:59.358Z,27.83
2017-11-17T08:44:38.413Z,16.65
2017-11-17T08:47:18.212Z,21.15
2017-11-17T08:49:57.920Z,17.12
2017-11-17T08:52:31.392Z,26.23
2017-11-17T08:55:09.350Z,17.25
2017-11-17T08:57:50.073Z,22.50
2017-11-17T09:00:29.468Z,28.20
2017-11-17T09:03:03.316Z,20.52
2017-11-17T09:05:44.480Z,14.25
2017-11-17T09:08:23.042Z,23.85
2017-11-17T09:11:05.106Z,20.48
2017-11-17T09:13:44.975Z,15.05
2017-11-17T09:16:23.964Z,23.27
2017-11-17T09:19:01.869Z,31.83
2017-11-17T09:21:41.026Z,19.85
2017-11-17T09:24:19.536Z,24.85
2017-11-17T09:26:58.315Z,18.20
2017-11-17T09:29:38.965Z,22.70
2017-11-17T09:32:17.756Z,20.17
2017-11-17T09:34:56.666Z,26.70
2017-11-17T09:37:33.238Z,14.48
2017-11-17T09:40:06.407Z,22.20
2017-11-17T09:42:49.239Z,17.62
2017-11-17T09:45:27.194Z,19.50
2017-11-17T09:48:04.239Z,17.23
2017-11-17T09:50:45.011Z,17.40
2017-11-17T09:53:27.739Z,17.33
2017-11-17T09:56:07.475Z,19.02
2017-11-17T09:58:46.477Z,19.80
2017-11-17T10:01:28.570Z,16.58
2017-11-17T10:04:07.886Z,22.60
2017-11-17T10:06:41.544Z,12.27
2017-11-17T10:09:15.253Z,13.55
2017-11-17T10:11:45.882Z,13.30
2017-11-17T10:14:25.262Z,21.15
2017-11-17T10:16:54.684Z,12.98
2017-11-17T10:19:32.218Z,19.30
2017-11-17T10:22:03.828Z,11.70
2017-11-17T10:24:41.761Z,17.37
2017-11-17T10:27:21.193Z,22.95
2017-11-17T10:29:58.652Z,23.55
2017-11-17T10:32:37.910Z,18.23
2017-11-17T10:35:18.823Z,20.50
2017-11-17T10:38:00.161Z,20.88
2017-11-17T10:40:39.355Z,17.17
2017-11-17T10:43:20.964Z,14.15
2017-11-17T10:46:00.577Z,18.02
2017-11-17T10:48:43.306Z,17.83
2017-11-17T10:51:16.946Z,17.33
2017-11-17T10:53:50.413Z,17.52
2017-11-17T10:56:35.146Z,16.23
2017-11-17T10:59:11.819Z,21.55
2017-11-17T11:01:45.331Z,17.37
2017-11-17T11:04:19.340Z,31.70
2017-11-17T11:06:57.112Z,13.00
2017-11-17T11:09:31.909Z,17.90
2017-11-17T11:12:10.874Z,16.73
2017-11-17T11:14:53.972Z,21.67
2017-11-17T11:17:34.538Z,12.23
2017-11-17T11:20:16.877Z,13.40
2017-11-17T11:22:54.906Z,12.80
2017-11-17T11:25:33.308Z,13.90
2017-11-17T11:28:14.303Z,12.20
2017-11-17T11:30:53.804Z,15.60
2017-11-17T11:33:27.151Z,14.57
2017-11-17T11:36:01.642Z,14.07
2017-11-17T11:38:38.700Z,12.73
2017-11-17T11:41:17.208Z,14.37
2017-11-17T11:43:55.866Z,13.82
2017-11-17T11:46:34.325Z,21.53
2017-11-17T11:49:18.899Z,9.17
2017-11-17T11:52:00.238Z,11.67
2017-11-17T11:54:33.476Z,22.63
2017-11-17T11:57:07.925Z,12.53
2017-11-17T11:59:47.263Z,12.93
2017-11-17T12:02:26.239Z,23.40
2017-11-17T12:05:08.204Z,14.27
2017-11-17T12:07:43.167Z,13.17
2017-11-17T12:10:22.301Z,16.77
2017-11-17T12:13:02.661Z,13.77
2017-11-17T12:15:43.547Z,13.17
2017-11-17T12:18:23.155Z,13.67
2017-11-17T12:20:57.219Z,11.47
2017-11-17T12:23:35.400Z,9.73
2017-11-17T12:26:16.412Z,16.83
2017-11-17T12:28:55.125Z,6.63
2017-11-17T12:31:35.765Z,10.27
2017-11-17T12:34:18.877Z,8.50
2017-11-17T12:37:00.357Z,9.50
2017-11-17T12:39:33.608Z,11.20
2017-11-17T12:42:06.064Z,10.47
2017-11-17T12:44:43.166Z,8.00
2017-11-17T12:47:23.951Z,9.97
2017-11-17T12:50:01.890Z,13.00
2017-11-17T12:52:41.350Z,8.20
2017-11-17T12:55:23.607Z,9.35
2017-11-17T12:58:01.964Z,16.48
2017-11-17T13:00:43.164Z,15.57
2017-11-17T13:03:22.639Z,14.05
2017-11-17T13:05:57.331Z,8.90
2017-11-17T13:08:31.984Z,11.90
2017-11-17T13:11:09.650Z,15.32
2017-11-17T13:13:54.483Z,10.55
2017-11-17T13:16:35.467Z,9.90
2017-11-17T13:19:09.729Z,10.23
2017-11-17T13:21:44.680Z,12.00
2017-11-17T13:24:19.034Z,10.90
2017-11-17T13:27:01.185Z,16.45
2017-11-17T13:29:35.445Z,13.40
2017-11-17T13:32:10.591Z,10.82
2017-11-17T13:34:52.481Z,12.35
2017-11-17T13:37:33.798Z,18.30
2017-11-17T13:40:09.571Z,10.95
2017-11-17T13:42:48.706Z,5.90
2017-11-17T13:45:27.060Z,12.55
2017-11-17T13:48:00.425Z,19.73
2017-11-17T13:50:37.592Z,9.88
2017-11-17T13:53:17.106Z,16.45
2017-11-17T13:55:50.311Z,12.18
2017-11-17T13:58:24.328Z,16.50
2017-11-17T14:01:05.170Z,18.45
2017-11-17T14:03:45.012Z,17.70
2017-11-17T14:06:19.653Z,14.38
2017-11-17T14:09:00.418Z,23.05
2017-11-17T14:11:40.847Z,12.82
2017-11-17T14:14:20.804Z,13.20
2017-11-17T14:16:57.467Z,8.90
2017-11-17T14:19:37.705Z,9.73
2017-11-17T14:22:22.229Z,12.52
2017-11-17T14:25:05.411Z,11.57
2017-11-17T14:27:44.141Z,16.67
2017-11-17T14:30:18.620Z,10.95
2017-11-17T14:32:58.128Z,10.75
2017-11-17T14:35:39.308Z,10.40
2017-11-17T14:38:14.101Z,10.57
2017-11-17T14:40:54.721Z,11.60
2017-11-17T14:43:27.332Z,10.30
2017-11-17T14:46:07.604Z,11.38
2017-11-17T14:48:43.002Z,10.85
2017-11-17T14:51:26.617Z,12.00
2017-11-17T14:54:07.580Z,11.77
2017-11-17T14:56:42.117Z,10.88
2017-11-17T14:59:23.766Z,10.63
2017-11-17T15:02:07.164Z,11.70
2017-11-17T15:04:48.879Z,18.33
2017-11-17T15:07:25.531Z,22.15
2017-11-17T15:10:03.852Z,17.23
2017-11-17T15:12:43.552Z,17.92
2017-11-17T15:15:26.359Z,12.82
2017-11-17T15:18:09.312Z,29.92
2017-11-17T15:20:48.984Z,10.98
2017-11-17T15:23:25.600Z,12.32
2017-11-17T15:26:00.985Z,20.92
2017-11-17T15:28:41.717Z,11.48
2017-11-17T15:31:15.074Z,12.65
2017-11-17T15:33:49.999Z,17.98
2017-11-17T15:36:24.831Z,15.25
2017-11-17T15:39:08.337Z,18.90
2017-11-17T15:41:50.066Z,18.15
2017-11-17T15:44:29.689Z,10.85
2017-11-17T15:47:12.108Z,23.90
2017-11-17T15:49:52.859Z,16.58
2017-11-17T15:52:27.844Z,20.75
2017-11-17T15:55:05.220Z,27.37
2017-11-17T15:57:44.957Z,18.27
2017-11-17T16:00:25.489Z,16.23
2017-11-17T16:03:03.847Z,20.10
2017-11-17T16:05:43.587Z,16.60
2017-11-17T16:08:23.933Z,33.80
2017-11-17T16:10:57.841Z,25.85
2017-11-17T16:13:36.232Z,20.27
2017-11-17T16:16:10.625Z,21.48
2017-11-17T16:18:44.970Z,9.65
2017-11-17T16:21:23.505Z,14.75
2017-11-17T16:24:05.222Z,15.63
2017-11-17T16:26:47.790Z,21.52
2017-11-17T16:29:22.239Z,16.40
2017-11-17T16:31:54.936Z,16.90
2017-11-17T16:34:32.549Z,16.42
2017-11-17T16:37:11.154Z,14.80
2017-11-17T16:39:52.055Z,15.50
2017-11-17T16:42:33.083Z,12.88
2017-11-17T16:45:12.815Z,19.30
2017-11-17T16:47:46.934Z,24.10
2017-11-17T16:50:25.986Z,16.52
2017-11-17T16:53:08.818Z,13.10
2017-11-17T16:55:46.375Z,31.48
2017-11-17T16:58:27.870Z,13.02
2017-11-17T17:01:00.948Z,15.57
2017-11-17T17:03:34.017Z,14.60
2017-11-17T17:06:11.717Z,16.98
2017-11-17T17:08:50.643Z,16.52
2017-11-17T17:11:29.441Z,29.83
2017-11-17T17:14:09.907Z,14.38
2017-11-17T17:16:50.308Z,18.23
2017-11-17T17:19:23.308Z,13.73
2017-11-17T17:22:03.463Z,19.70
2017-11-17T17:24:42.208Z,15.02
2017-11-17T17:27:16.708Z,22.55
2017-11-17T17:29:51.712Z,32.22
2017-11-17T17:32:31.697Z,16.42
2017-11-17T17:35:11.208Z,25.98
2017-11-17T17:37:45.411Z,18.90
2017-11-17T17:40:19.498Z,25.12
2017-11-17T17:42:59.291Z,15.32
2017-11-17T17:45:40.958Z,23.95
2017-11-17T17:48:18.652Z,28.65
2017-11-17T17:50:56.146Z,28.20
2017-11-17T17:53:35.435Z,21.30
2017-11-17T17:56:11.200Z,31.12
2017-11-17T17:58:45.535Z,21.12
2017-11-17T18:01:19.266Z,21.23
2017-11-17T18:04:01.276Z,13.82
2017-11-17T18:06:41.719Z,19.77
2017-11-17T18:09:20.500Z,18.67
2017-11-17T18:11:53.873Z,27.20
2017-11-17T18:14:35.711Z,18.65
2017-11-17T18:17:08.355Z,25.83
2017-11-17T18:19:43.658Z,26.80
2017-11-17T18:22:18.302Z,29.00
2017-11-17T18:24:56.682Z,27.95
2017-11-17T18:27:39.500Z,23.62
2017-11-17T18:30:12.591Z,32.10
2017-11-17T18:32:51.597Z,21.77
2017-11-17T18:35:32.152Z,20.05
2017-11-17T18:38:07.081Z,20.45
2017-11-17T18:40:41.658Z,17.75
2017-11-17T18:43:20.960Z,18.27
2017-11-17T18:45:59.724Z,20.92
2017-11-17T18:48:34.661Z,24.60
2017-11-17T18:51:08.806Z,25.75
2017-11-17T18:53:41.731Z,21.27
2017-11-17T18:56:22.627Z,24.33
2017-11-17T18:59:01.308Z,18.08
2017-11-17T19:01:39.340Z,17.17
2017-11-17T19:04:13.009Z,23.58
2017-11-17T19:06:49.016Z,29.70
2017-11-17T19:09:28.314Z,12.75
2017-11-17T19:12:01.060Z,17.08
2017-11-17T19:14:40.660Z,21.83
2017-11-17T19:17:19.353Z,20.00
2017-11-17T19:20:00.690Z,17.50
2017-11-17T19:22:35.073Z,20.60
2017-11-17T19:25:14.127Z,26.33
2017-11-17T19:27:56.963Z,25.35
2017-11-17T19:30:35.001Z,20.60
2017-11-17T19:33:12.729Z,25.98
2017-11-17T19:35:46.540Z,22.42
2017-11-17T19:38:22.634Z,21.17
2017-11-17T19:40:56.902Z,24.52
2017-11-17T19:43:31.173Z,22.30
2017-11-17T19:46:11.289Z,24.67
2017-11-17T19:48:49.023Z,23.60
2017-11-17T19:51:26.610Z,13.90
2017-11-17T19:54:00.504Z,24.70
2017-11-17T19:56:38.860Z,27.70
2017-11-17T19:59:19.896Z,23.38
2017-11-17T20:01:59.252Z,18.12
2017-11-17T20:04:33.238Z,22.87
2017-11-17T20:07:10.077Z,24.40
2017-11-17T20:09:50.840Z,29.05
2017-11-17T20:12:28.506Z,19.60
2017-11-17T20:15:10.339Z,24.50
2017-11-17T20:17:43.546Z,25.88
2017-11-17T20:20:16.742Z,20.65
2017-11-17T20:22:52.609Z,37.15
2017-11-17T20:25:32.659Z,29.60
2017-11-17T20:28:11.322Z,26.33
2017-11-17T20:30:48.448Z,25.10
2017-11-17T20:33:29.457Z,17.42
2017-11-17T20:36:13.018Z,25.98
2017-11-17T20:38:53.603Z,24.87
2017-11-17T20:41:33.356Z,22.23
2017-11-17T20:44:07.668Z,21.85
2017-11-17T20:46:45.561Z,19.42
2017-11-17T20:49:19.120Z,23.40
2017-11-17T20:52:03.370Z,24.48
2017-11-17T20:54:36.003Z,27.30
2017-11-17T20:57:09.728Z,24.37
2017-11-17T20:59:48.251Z,22.50
2017-11-17T21:02:27.192Z,19.37
2017-11-17T21:05:06.320Z,28.25
2017-11-17T21:07:48.951Z,18.33
2017-11-17T21:10:21.396Z,24.00
2017-11-17T21:13:00.012Z,22.67
2017-11-17T21:15:33.936Z,19.48
2017-11-17T21:18:06.872Z,24.05
2017-11-17T21:20:40.723Z,27.58
2017-11-17T21:23:19.760Z,22.52
2017-11-17T21:26:00.018Z,26.33
2017-11-17T21:28:39.730Z,32.28
2017-11-17T21:31:14.243Z,33.97
2017-11-17T21:33:48.679Z,42.22
2017-11-17T21:36:27.931Z,31.42
2017-11-17T21:39:08.496Z,33.03
2017-11-17T21:41:42.004Z,25.85
2017-11-17T21:44:16.876Z,22.95
2017-11-17T21:46:52.712Z,42.15
2017-11-17T21:49:28.497Z,31.02
2017-11-17T21:52:07.766Z,31.08
2017-11-17T21:54:42.710Z,26.35
2017-11-17T21:57:22.268Z,31.08
2017-11-17T22:00:01.686Z,31.62
2017-11-17T22:02:42.969Z,28.30
2017-11-17T22:05:23.025Z,30.77
2017-11-17T22:08:02.997Z,27.42
2017-11-17T22:10:37.722Z,39.80
2017-11-17T22:13:15.401Z,26.17
2017-11-17T22:15:57.147Z,31.95
2017-11-17T22:18:35.985Z,23.85
2017-11-17T22:21:15.539Z,23.92
2017-11-17T22:23:56.152Z,31.77
2017-11-17T22:26:33.944Z,23.60
2017-11-17T22:29:12.090Z,22.30
2017-11-17T22:31:52.060Z,28.48
2017-11-17T22:34:31.500Z,26.65
2017-11-17T22:37:10.281Z,34.63
2017-11-17T22:39:43.307Z,34.10
2017-11-17T22:42:22.367Z,26.98
2017-11-17T22:45:03.875Z,34.72
2017-11-17T22:47:42.850Z,29.60
2017-11-17T22:50:20.624Z,41.97
2017-11-17T22:52:57.792Z,38.25
2017-11-17T22:55:32.393Z,26.25
2017-11-17T22:58:11.378Z,26.23
2017-11-17T23:00:50.549Z,26.23
2017-11-17T23:03:30.675Z,29.80
2017-11-17T23:06:05.495Z,28.30
2017-11-17T23:08:46.923Z,33.58
2017-11-17T23:11:24.901Z,23.40
2017-11-17T23:14:04.644Z,33.95
2017-11-17T23:16:45.248Z,30.10
2017-11-17T23:19:23.703Z,29.33
2017-11-17T23:22:05.336Z,29.35
2017-11-17T23:24:45.803Z,27.50
2017-11-17T23:27:27.232Z,21.00
2017-11-17T23:30:06.679Z,28.83
2017-11-17T23:32:46.337Z,30.48
2017-11-17T23:35:27.740Z,23.05
2017-11-17T23:38:01.460Z,25.20
2017-11-17T23:40:35.828Z,29.12
2017-11-17T23:43:15.345Z,24.60
2017-11-17T23:45:53.689Z,35.00
2017-11-17T23:48:33.022Z,25.40
2017-11-17T23:51:12.175Z,23.05
2017-11-17T23:53:50.885Z,20.48
2017-11-17T23:56:29.938Z,26.30
2017-11-17T23:59:03.854Z,25.23
